sensor_id;sensor_type;location;lat;lon;timestamp;pressure;altitude;pressure_sealevel;temperature;humidity
59190;BME280;50749;51.636;4.948;2024-02-21T00:00:05;102297.91;;;16.53;65.99
59190;BME280;50749;51.636;4.948;2024-02-21T00:02:57;102308.97;;;16.53;66.04
59190;BME280;50749;51.636;4.948;2024-02-21T00:05:30;102302.63;;;16.52;65.93
59190;BME280;50749;51.636;4.948;2024-02-21T00:07:59;102300.19;;;16.51;65.96
59190;BME280;50749;51.636;4.948;2024-02-21T00:10:29;102294.66;;;16.51;65.68
59190;BME280;50749;51.636;4.948;2024-02-21T00:12:58;102278.41;;;16.49;65.88
59190;BME280;50749;51.636;4.948;2024-02-21T00:15:27;102279.53;;;16.48;65.74
59190;BME280;50749;51.636;4.948;2024-02-21T00:17:56;102261.00;;;16.49;66.15
59190;BME280;50749;51.636;4.948;2024-02-21T00:20:25;102267.69;;;16.48;65.61
59190;BME280;50749;51.636;4.948;2024-02-21T00:22:56;102262.16;;;16.48;65.87
59190;BME280;50749;51.636;4.948;2024-02-21T00:25:25;102262.16;;;16.48;65.66
59190;BME280;50749;51.636;4.948;2024-02-21T00:27:54;102260.50;;;16.47;65.89
59190;BME280;50749;51.636;4.948;2024-02-21T00:30:23;102247.84;;;16.46;65.68
59190;BME280;50749;51.636;4.948;2024-02-21T00:32:52;102241.50;;;16.45;65.47
59190;BME280;50749;51.636;4.948;2024-02-21T00:35:20;102232.72;;;16.43;65.81
59190;BME280;50749;51.636;4.948;2024-02-21T00:37:49;102228.00;;;16.44;65.27
59190;BME280;50749;51.636;4.948;2024-02-21T00:40:20;102234.69;;;16.43;65.61
59190;BME280;50749;51.636;4.948;2024-02-21T00:42:49;102230.28;;;16.42;65.81
59190;BME280;50749;51.636;4.948;2024-02-21T00:45:18;102235.78;;;16.42;65.85
59190;BME280;50749;51.636;4.948;2024-02-21T00:47:47;102232.22;;;16.41;66.08
59190;BME280;50749;51.636;4.948;2024-02-21T00:50:15;102223.94;;;16.41;65.82
59190;BME280;50749;51.636;4.948;2024-02-21T00:52:44;102229.78;;;16.40;65.92
59190;BME280;50749;51.636;4.948;2024-02-21T00:55:14;102219.84;;;16.39;65.77
59190;BME280;50749;51.636;4.948;2024-02-21T00:57:45;102219.84;;;16.39;65.68
59190;BME280;50749;51.636;4.948;2024-02-21T01:00:15;102225.38;;;16.39;65.69
59190;BME280;50749;51.636;4.948;2024-02-21T01:02:44;102215.19;;;16.39;65.74
59190;BME280;50749;51.636;4.948;2024-02-21T01:05:12;102218.25;;;16.38;65.53
59190;BME280;50749;51.636;4.948;2024-02-21T01:07:41;102212.72;;;16.38;65.78
59190;BME280;50749;51.636;4.948;2024-02-21T01:10:10;102211.09;;;16.37;65.46
59190;BME280;50749;51.636;4.948;2024-02-21T01:12:39;102210.59;;;16.34;65.49
59190;BME280;50749;51.636;4.948;2024-02-21T01:15:10;102216.41;;;16.33;65.91
59190;BME280;50749;51.636;4.948;2024-02-21T01:17:39;102211.72;;;16.33;65.61
59190;BME280;50749;51.636;4.948;2024-02-21T01:20:09;102216.91;;;16.35;66.00
59190;BME280;50749;51.636;4.948;2024-02-21T01:22:38;102205.38;;;16.33;65.97
59190;BME280;50749;51.636;4.948;2024-02-21T01:25:08;102202.63;;;16.33;65.73
59190;BME280;50749;51.636;4.948;2024-02-21T01:27:37;102199.06;;;16.32;65.81
59190;BME280;50749;51.636;4.948;2024-02-21T01:30:07;102197.41;;;16.31;65.59
59190;BME280;50749;51.636;4.948;2024-02-21T01:32:39;102191.09;;;16.31;65.78
59190;BME280;50749;51.636;4.948;2024-02-21T01:35:08;102189.44;;;16.30;65.86
59190;BME280;50749;51.636;4.948;2024-02-21T01:37:37;102195.78;;;16.30;65.96
59190;BME280;50749;51.636;4.948;2024-02-21T01:40:07;102201.28;;;16.30;65.65
59190;BME280;50749;51.636;4.948;2024-02-21T01:42:38;102197.72;;;16.30;65.64
59190;BME280;50749;51.636;4.948;2024-02-21T01:45:07;102191.41;;;16.29;65.50
59190;BME280;50749;51.636;4.948;2024-02-21T01:47:39;102195.28;;;16.28;65.68
59190;BME280;50749;51.636;4.948;2024-02-21T01:50:09;102198.03;;;16.28;65.64
59190;BME280;50749;51.636;4.948;2024-02-21T01:52:38;102190.91;;;16.27;65.81
59190;BME280;50749;51.636;4.948;2024-02-21T01:55:08;102184.56;;;16.27;65.65
59190;BME280;50749;51.636;4.948;2024-02-21T01:57:39;102184.56;;;16.27;65.59
59190;BME280;50749;51.636;4.948;2024-02-21T02:00:10;102183.75;;;16.26;65.41
59190;BME280;50749;51.636;4.948;2024-02-21T02:02:45;102178.22;;;16.26;65.42
59190;BME280;50749;51.636;4.948;2024-02-21T02:05:15;102166.38;;;16.26;65.65
59190;BME280;50749;51.636;4.948;2024-02-21T02:07:45;102166.69;;;16.24;65.39
59190;BME280;50749;51.636;4.948;2024-02-21T02:10:14;102159.22;;;16.25;65.84
59190;BME280;50749;51.636;4.948;2024-02-21T02:12:44;102157.56;;;16.24;65.71
59190;BME280;50749;51.636;4.948;2024-02-21T02:15:13;102151.25;;;16.23;65.75
59190;BME280;50749;51.636;4.948;2024-02-21T02:17:45;102148.50;;;16.23;65.63
59190;BME280;50749;51.636;4.948;2024-02-21T02:20:13;102144.44;;;16.21;65.64
59190;BME280;50749;51.636;4.948;2024-02-21T02:22:43;102142.47;;;16.21;65.41
59190;BME280;50749;51.636;4.948;2024-02-21T02:25:18;102141.69;;;16.21;65.46
59190;BME280;50749;51.636;4.948;2024-02-21T02:27:47;102142.00;;;16.19;65.39
59190;BME280;50749;51.636;4.948;2024-02-21T02:30:16;102145.56;;;16.20;65.41
59190;BME280;50749;51.636;4.948;2024-02-21T02:32:45;102148.63;;;16.18;65.44
59190;BME280;50749;51.636;4.948;2024-02-21T02:35:14;102153.03;;;16.19;65.71
59190;BME280;50749;51.636;4.948;2024-02-21T02:37:48;102143.09;;;16.18;65.20
59190;BME280;50749;51.636;4.948;2024-02-21T02:40:20;102134.03;;;16.18;65.45
59190;BME280;50749;51.636;4.948;2024-02-21T02:42:49;102131.59;;;16.16;65.22
59190;BME280;50749;51.636;4.948;2024-02-21T02:45:21;102134.34;;;16.16;65.37
59190;BME280;50749;51.636;4.948;2024-02-21T02:47:52;102127.19;;;16.15;65.42
59190;BME280;50749;51.636;4.948;2024-02-21T02:50:22;102122.81;;;16.14;65.26
59190;BME280;50749;51.636;4.948;2024-02-21T02:52:51;102122.81;;;16.14;65.58
59190;BME280;50749;51.636;4.948;2024-02-21T02:55:23;102111.25;;;16.12;65.34
59190;BME280;50749;51.636;4.948;2024-02-21T02:57:52;102112.88;;;16.13;65.37
59190;BME280;50749;51.636;4.948;2024-02-21T03:00:21;102124.72;;;16.13;65.42
59190;BME280;50749;51.636;4.948;2024-02-21T03:02:50;102115.97;;;16.11;65.44
59190;BME280;50749;51.636;4.948;2024-02-21T03:05:20;102099.41;;;16.11;65.37
59190;BME280;50749;51.636;4.948;2024-02-21T03:07:49;102105.72;;;16.12;65.18
59190;BME280;50749;51.636;4.948;2024-02-21T03:10:18;102095.84;;;16.11;65.38
59190;BME280;50749;51.636;4.948;2024-02-21T03:12:49;102093.09;;;16.11;65.46
59190;BME280;50749;51.636;4.948;2024-02-21T03:15:19;102088.69;;;16.10;65.09
59190;BME280;50749;51.636;4.948;2024-02-21T03:17:48;102084.31;;;16.09;65.16
59190;BME280;50749;51.636;4.948;2024-02-21T03:20:16;102083.47;;;16.08;65.31
59190;BME280;50749;51.636;4.948;2024-02-21T03:22:45;102075.22;;;16.08;65.22
59190;BME280;50749;51.636;4.948;2024-02-21T03:25:14;102072.75;;;16.07;65.02
59190;BME280;50749;51.636;4.948;2024-02-21T03:27:43;102071.16;;;16.06;65.44
59190;BME280;50749;51.636;4.948;2024-02-21T03:30:15;102066.44;;;16.06;65.36
59190;BME280;50749;51.636;4.948;2024-02-21T03:32:44;102067.56;;;16.05;65.28
59190;BME280;50749;51.636;4.948;2024-02-21T03:35:13;102060.44;;;16.04;65.13
59190;BME280;50749;51.636;4.948;2024-02-21T03:37:41;102063.19;;;16.04;65.32
59190;BME280;50749;51.636;4.948;2024-02-21T03:40:10;102048.56;;;16.04;65.05
59190;BME280;50749;51.636;4.948;2024-02-21T03:42:39;102052.16;;;16.04;65.04
59190;BME280;50749;51.636;4.948;2024-02-21T03:45:09;102050.50;;;16.03;65.14
59190;BME280;50749;51.636;4.948;2024-02-21T03:47:41;102051.66;;;16.02;65.27
59190;BME280;50749;51.636;4.948;2024-02-21T03:50:09;102040.94;;;16.01;65.09
59190;BME280;50749;51.636;4.948;2024-02-21T03:52:38;102034.91;;;15.98;65.36
59190;BME280;50749;51.636;4.948;2024-02-21T03:55:08;102042.06;;;16.00;65.26
59190;BME280;50749;51.636;4.948;2024-02-21T03:57:37;102047.56;;;16.00;65.27
59190;BME280;50749;51.636;4.948;2024-02-21T04:00:06;102046.78;;;15.99;65.22
59190;BME280;50749;51.636;4.948;2024-02-21T04:02:40;102045.94;;;15.98;65.17
59190;BME280;50749;51.636;4.948;2024-02-21T04:05:11;102055.03;;;15.99;65.08
59190;BME280;50749;51.636;4.948;2024-02-21T04:07:40;102055.34;;;15.97;65.27
59190;BME280;50749;51.636;4.948;2024-02-21T04:10:09;102050.97;;;15.96;65.00
59190;BME280;50749;51.636;4.948;2024-02-21T04:12:40;102041.88;;;15.96;65.29
59190;BME280;50749;51.636;4.948;2024-02-21T04:15:09;102045.75;;;15.95;65.22
59190;BME280;50749;51.636;4.948;2024-02-21T04:17:41;102043.31;;;15.93;65.64
59190;BME280;50749;51.636;4.948;2024-02-21T04:20:14;102034.72;;;15.95;65.27
59190;BME280;50749;51.636;4.948;2024-02-21T04:22:43;102041.88;;;15.96;65.30
59190;BME280;50749;51.636;4.948;2024-02-21T04:25:12;102034.59;;;16.00;65.56
59190;BME280;50749;51.636;4.948;2024-02-21T04:27:42;102030.41;;;16.03;65.40
59190;BME280;50749;51.636;4.948;2024-02-21T04:30:11;102037.72;;;16.07;65.63
59190;BME280;50749;51.636;4.948;2024-02-21T04:32:43;102036.75;;;16.12;65.76
59190;BME280;50749;51.636;4.948;2024-02-21T04:35:11;102038.91;;;16.15;65.94
59190;BME280;50749;51.636;4.948;2024-02-21T04:37:40;102035.19;;;16.20;65.78
59190;BME280;50749;51.636;4.948;2024-02-21T04:40:10;102041.69;;;16.24;65.98
59190;BME280;50749;51.636;4.948;2024-02-21T04:42:40;102030.84;;;16.27;65.82
59190;BME280;50749;51.636;4.948;2024-02-21T04:45:09;102017.56;;;16.29;65.81
59190;BME280;50749;51.636;4.948;2024-02-21T04:47:39;102015.78;;;16.33;65.80
59190;BME280;50749;51.636;4.948;2024-02-21T04:50:10;102017.91;;;16.37;65.95
59190;BME280;50749;51.636;4.948;2024-02-21T04:52:39;102010.09;;;16.39;65.90
59190;BME280;50749;51.636;4.948;2024-02-21T04:55:08;102002.31;;;16.41;66.00
59190;BME280;50749;51.636;4.948;2024-02-21T04:57:37;102007.19;;;16.44;65.88
59190;BME280;50749;51.636;4.948;2024-02-21T05:00:07;102004.97;;;16.46;66.24
59190;BME280;50749;51.636;4.948;2024-02-21T05:02:36;102003.16;;;16.50;65.92
59190;BME280;50749;51.636;4.948;2024-02-21T05:05:06;101997.34;;;16.51;65.73
59190;BME280;50749;51.636;4.948;2024-02-21T05:07:37;101997.50;;;16.55;65.89
59190;BME280;50749;51.636;4.948;2024-02-21T05:10:08;101987.78;;;16.58;66.35
59190;BME280;50749;51.636;4.948;2024-02-21T05:12:37;101981.09;;;16.59;66.05
59190;BME280;50749;51.636;4.948;2024-02-21T05:15:06;101966.19;;;16.60;65.87
59190;BME280;50749;51.636;4.948;2024-02-21T05:17:36;101971.06;;;16.63;65.77
59190;BME280;50749;51.636;4.948;2024-02-21T05:20:06;101961.31;;;16.65;66.08
59190;BME280;50749;51.636;4.948;2024-02-21T05:22:38;101959.03;;;16.67;66.30
59190;BME280;50749;51.636;4.948;2024-02-21T05:25:07;101961.47;;;16.69;65.99
59190;BME280;50749;51.636;4.948;2024-02-21T05:27:36;101963.59;;;16.72;66.13
59190;BME280;50749;51.636;4.948;2024-02-21T05:30:06;101956.63;;;16.75;66.19
59190;BME280;50749;51.636;4.948;2024-02-21T05:32:36;101950.44;;;16.78;66.15
59190;BME280;50749;51.636;4.948;2024-02-21T05:35:04;101949.00;;;16.80;65.88
59190;BME280;50749;51.636;4.948;2024-02-21T05:37:33;101939.25;;;16.83;66.08
59190;BME280;50749;51.636;4.948;2024-02-21T05:40:06;101937.31;;;16.83;66.20
59190;BME280;50749;51.636;4.948;2024-02-21T05:42:36;101931.47;;;16.85;65.96
59190;BME280;50749;51.636;4.948;2024-02-21T05:45:05;101934.72;;;16.87;66.24
59190;BME280;50749;51.636;4.948;2024-02-21T05:47:34;101931.31;;;16.90;65.96
59190;BME280;50749;51.636;4.948;2024-02-21T05:50:04;101936.53;;;16.92;65.83
59190;BME280;50749;51.636;4.948;2024-02-21T05:52:33;101932.94;;;16.91;65.67
59190;BME280;50749;51.636;4.948;2024-02-21T05:55:01;101930.69;;;16.93;65.72
59190;BME280;50749;51.636;4.948;2024-02-21T05:57:33;101930.00;;;16.96;65.66
59190;BME280;50749;51.636;4.948;2024-02-21T06:00:04;101918.31;;;16.99;65.27
59190;BME280;50749;51.636;4.948;2024-02-21T06:02:33;101916.69;;;16.98;65.19
59190;BME280;50749;51.636;4.948;2024-02-21T06:05:02;101909.69;;;17.01;65.35
59190;BME280;50749;51.636;4.948;2024-02-21T06:07:33;101895.56;;;17.02;65.71
59190;BME280;50749;51.636;4.948;2024-02-21T06:10:02;101901.56;;;17.04;65.37
59190;BME280;50749;51.636;4.948;2024-02-21T06:12:34;101901.25;;;17.06;65.75
59190;BME280;50749;51.636;4.948;2024-02-21T06:15:03;101897.84;;;17.09;65.34
59190;BME280;50749;51.636;4.948;2024-02-21T06:17:32;101891.81;;;17.07;65.65
59190;BME280;50749;51.636;4.948;2024-02-21T06:20:01;101893.09;;;17.09;65.55
59190;BME280;50749;51.636;4.948;2024-02-21T06:22:30;101900.28;;;17.11;65.62
59190;BME280;50749;51.636;4.948;2024-02-21T06:24:59;101899.16;;;17.12;65.41
59190;BME280;50749;51.636;4.948;2024-02-21T06:27:28;101903.84;;;17.11;65.40
59190;BME280;50749;51.636;4.948;2024-02-21T06:29:59;101904.66;;;17.12;65.24
59190;BME280;50749;51.636;4.948;2024-02-21T06:32:29;101900.75;;;17.13;65.54
59190;BME280;50749;51.636;4.948;2024-02-21T06:34:57;101896.84;;;17.14;65.53
59190;BME280;50749;51.636;4.948;2024-02-21T06:37:27;101897.34;;;17.16;65.07
59190;BME280;50749;51.636;4.948;2024-02-21T06:39:57;101904.50;;;17.17;65.27
59190;BME280;50749;51.636;4.948;2024-02-21T06:42:27;101902.03;;;17.24;65.16
59190;BME280;50749;51.636;4.948;2024-02-21T06:44:55;101905.94;;;17.23;65.27
59190;BME280;50749;51.636;4.948;2024-02-21T06:47:27;101907.56;;;17.24;65.23
59190;BME280;50749;51.636;4.948;2024-02-21T06:49:56;101906.78;;;17.23;65.18
59190;BME280;50749;51.636;4.948;2024-02-21T06:52:25;101903.69;;;17.25;64.85
59190;BME280;50749;51.636;4.948;2024-02-21T06:54:53;101898.97;;;17.25;64.79
59190;BME280;50749;51.636;4.948;2024-02-21T06:57:22;101891.78;;;17.24;64.99
59190;BME280;50749;51.636;4.948;2024-02-21T06:59:51;101879.94;;;17.24;65.15
59190;BME280;50749;51.636;4.948;2024-02-21T07:02:20;101879.94;;;17.24;64.85
59190;BME280;50749;51.636;4.948;2024-02-21T07:04:51;101868.88;;;17.24;65.04
59190;BME280;50749;51.636;4.948;2024-02-21T07:07:20;101868.41;;;17.22;65.26
59190;BME280;50749;51.636;4.948;2024-02-21T07:09:49;101875.88;;;17.21;65.25
59190;BME280;50749;51.636;4.948;2024-02-21T07:12:19;101875.06;;;17.21;65.15
59190;BME280;50749;51.636;4.948;2024-02-21T07:14:48;101871.50;;;17.20;65.01
59190;BME280;50749;51.636;4.948;2024-02-21T07:17:17;101873.44;;;17.20;64.79
59190;BME280;50749;51.636;4.948;2024-02-21T07:19:45;101868.25;;;17.18;64.80
59190;BME280;50749;51.636;4.948;2024-02-21T07:22:17;101859.97;;;17.18;65.01
59190;BME280;50749;51.636;4.948;2024-02-21T07:24:45;101859.44;;;17.16;64.87
59190;BME280;50749;51.636;4.948;2024-02-21T07:27:15;101858.97;;;17.14;65.24
59190;BME280;50749;51.636;4.948;2024-02-21T07:29:43;101854.63;;;17.13;64.90
59190;BME280;50749;51.636;4.948;2024-02-21T07:32:15;101857.38;;;17.13;65.03
59190;BME280;50749;51.636;4.948;2024-02-21T07:34:43;101843.06;;;17.11;64.65
59190;BME280;50749;51.636;4.948;2024-02-21T07:37:12;101839.00;;;17.08;64.73
59190;BME280;50749;51.636;4.948;2024-02-21T07:39:44;101827.97;;;17.08;64.83
59190;BME280;50749;51.636;4.948;2024-02-21T07:42:12;101818.88;;;17.08;64.77
59190;BME280;50749;51.636;4.948;2024-02-21T07:44:41;101812.84;;;17.06;64.69
59190;BME280;50749;51.636;4.948;2024-02-21T07:47:10;101811.22;;;17.05;64.95
59190;BME280;50749;51.636;4.948;2024-02-21T07:49:42;101808.78;;;17.03;65.05
59190;BME280;50749;51.636;4.948;2024-02-21T07:52:11;101812.69;;;17.02;64.54
59190;BME280;50749;51.636;4.948;2024-02-21T07:54:40;101811.09;;;17.01;64.70
59190;BME280;50749;51.636;4.948;2024-02-21T07:57:12;101808.66;;;17.00;64.54
59190;BME280;50749;51.636;4.948;2024-02-21T07:59:40;101801.47;;;16.99;64.18
59190;BME280;50749;51.636;4.948;2024-02-21T08:02:09;101806.22;;;16.98;64.61
59190;BME280;50749;51.636;4.948;2024-02-21T08:04:38;101794.66;;;16.96;64.60
59190;BME280;50749;51.636;4.948;2024-02-21T08:07:07;101790.75;;;16.97;64.59
59190;BME280;50749;51.636;4.948;2024-02-21T08:09:36;101787.53;;;16.95;64.42
59190;BME280;50749;51.636;4.948;2024-02-21T08:12:08;101774.84;;;16.94;64.56
59190;BME280;50749;51.636;4.948;2024-02-21T08:14:39;101775.16;;;16.93;64.44
59190;BME280;50749;51.636;4.948;2024-02-21T08:17:09;101773.56;;;16.92;64.43
59190;BME280;50749;51.636;4.948;2024-02-21T08:19:37;101773.56;;;16.92;64.56
59190;BME280;50749;51.636;4.948;2024-02-21T08:22:06;101761.69;;;16.91;64.20
59190;BME280;50749;51.636;4.948;2024-02-21T08:24:35;101759.28;;;16.89;64.15
59190;BME280;50749;51.636;4.948;2024-02-21T08:27:04;101756.50;;;16.89;64.02
59190;BME280;50749;51.636;4.948;2024-02-21T08:29:33;101747.72;;;16.87;64.30
59190;BME280;50749;51.636;4.948;2024-02-21T08:32:04;101746.13;;;16.86;64.18
59190;BME280;50749;51.636;4.948;2024-02-21T08:34:33;101739.75;;;16.86;64.56
59190;BME280;50749;51.636;4.948;2024-02-21T08:37:02;101735.41;;;16.85;64.01
59190;BME280;50749;51.636;4.948;2024-02-21T08:39:31;101738.47;;;16.83;64.05
59190;BME280;50749;51.636;4.948;2024-02-21T08:42:00;101729.38;;;16.83;64.33
59190;BME280;50749;51.636;4.948;2024-02-21T08:44:29;101730.16;;;16.83;64.03
59190;BME280;50749;51.636;4.948;2024-02-21T08:46:58;101730.50;;;16.82;63.85
59190;BME280;50749;51.636;4.948;2024-02-21T08:49:31;101737.16;;;16.81;63.80
59190;BME280;50749;51.636;4.948;2024-02-21T08:52:00;101724.50;;;16.80;63.84
59190;BME280;50749;51.636;4.948;2024-02-21T08:54:29;101722.06;;;16.78;64.07
59190;BME280;50749;51.636;4.948;2024-02-21T08:56:58;101712.16;;;16.77;64.31
59190;BME280;50749;51.636;4.948;2024-02-21T08:59:27;101719.63;;;16.77;63.92
59190;BME280;50749;51.636;4.948;2024-02-21T09:01:56;101706.94;;;16.76;64.00
59190;BME280;50749;51.636;4.948;2024-02-21T09:04:24;101705.34;;;16.75;63.98
59190;BME280;50749;51.636;4.948;2024-02-21T09:06:56;101705.66;;;16.73;63.94
59190;BME280;50749;51.636;4.948;2024-02-21T09:09:25;101696.91;;;16.71;63.89
59190;BME280;50749;51.636;4.948;2024-02-21T09:11:54;101689.44;;;16.71;63.86
59190;BME280;50749;51.636;4.948;2024-02-21T09:14:23;101689.75;;;16.70;63.97
59190;BME280;50749;51.636;4.948;2024-02-21T09:16:52;101687.00;;;16.70;63.92
59190;BME280;50749;51.636;4.948;2024-02-21T09:19:21;101681.81;;;16.68;63.73
59190;BME280;50749;51.636;4.948;2024-02-21T09:21:50;101688.13;;;16.69;63.68
59190;BME280;50749;51.636;4.948;2024-02-21T09:24:21;101682.94;;;16.67;63.94
59190;BME280;50749;51.636;4.948;2024-02-21T09:26:50;101679.03;;;16.68;63.94
59190;BME280;50749;51.636;4.948;2024-02-21T09:29:19;101658.09;;;16.67;63.71
59190;BME280;50749;51.636;4.948;2024-02-21T09:31:48;101647.88;;;16.68;63.91
59190;BME280;50749;51.636;4.948;2024-02-21T09:34:16;101644.28;;;16.67;63.92
59190;BME280;50749;51.636;4.948;2024-02-21T09:36:45;101631.16;;;16.64;63.70
59190;BME280;50749;51.636;4.948;2024-02-21T09:39:14;101628.72;;;16.63;63.85
59190;BME280;50749;51.636;4.948;2024-02-21T09:41:50;101619.63;;;16.62;63.73
59190;BME280;50749;51.636;4.948;2024-02-21T09:44:21;101604.22;;;16.61;63.71
59190;BME280;50749;51.636;4.948;2024-02-21T09:46:54;101602.56;;;16.60;63.63
59190;BME280;50749;51.636;4.948;2024-02-21T09:49:30;101594.28;;;16.60;63.56
59190;BME280;50749;51.636;4.948;2024-02-21T09:52:01;101587.97;;;16.60;63.94
59190;BME280;50749;51.636;4.948;2024-02-21T09:54:33;101578.88;;;16.59;63.84
59190;BME280;50749;51.636;4.948;2024-02-21T09:57:06;101575.63;;;16.57;63.75
59190;BME280;50749;51.636;4.948;2024-02-21T09:59:34;101564.25;;;16.59;63.93
59190;BME280;50749;51.636;4.948;2024-02-21T10:02:03;101566.22;;;16.58;63.93
59190;BME280;50749;51.636;4.948;2024-02-21T10:04:33;101563.47;;;16.58;63.67
59190;BME280;50749;51.636;4.948;2024-02-21T10:07:02;101571.75;;;16.58;63.83
59190;BME280;50749;51.636;4.948;2024-02-21T10:09:31;101553.53;;;16.57;63.56
59190;BME280;50749;51.636;4.948;2024-02-21T10:12:11;101547.22;;;16.57;63.53
59190;BME280;50749;51.636;4.948;2024-02-21T10:14:40;101536.97;;;16.57;63.64
59190;BME280;50749;51.636;4.948;2024-02-21T10:17:15;101531.47;;;16.57;63.55
59190;BME280;50749;51.636;4.948;2024-02-21T10:19:45;101506.16;;;16.55;63.72
59190;BME280;50749;51.636;4.948;2024-02-21T10:22:17;101496.75;;;16.56;63.77
59190;BME280;50749;51.636;4.948;2024-02-21T10:24:46;101482.94;;;16.56;63.77
59190;BME280;50749;51.636;4.948;2024-02-21T10:27:18;101460.34;;;16.54;63.73
59190;BME280;50749;51.636;4.948;2024-02-21T10:29:49;101446.09;;;16.52;63.90
59190;BME280;50749;51.636;4.948;2024-02-21T10:32:19;101438.63;;;16.52;63.56
59190;BME280;50749;51.636;4.948;2024-02-21T10:34:48;101438.97;;;16.51;63.83
59190;BME280;50749;51.636;4.948;2024-02-21T10:37:20;101457.13;;;16.52;63.75
59190;BME280;50749;51.636;4.948;2024-02-21T10:39:49;101463.81;;;16.51;63.82
59190;BME280;50749;51.636;4.948;2024-02-21T10:42:21;101469.78;;;16.53;63.57
59190;BME280;50749;51.636;4.948;2024-02-21T10:44:51;101480.03;;;16.52;63.89
59190;BME280;50749;51.636;4.948;2024-02-21T10:47:23;101481.97;;;16.52;63.72
59190;BME280;50749;51.636;4.948;2024-02-21T10:49:59;101483.13;;;16.51;63.43
59190;BME280;50749;51.636;4.948;2024-02-21T10:52:40;101485.06;;;16.50;63.50
59190;BME280;50749;51.636;4.948;2024-02-21T10:55:20;101485.38;;;16.49;63.58
59190;BME280;50749;51.636;4.948;2024-02-21T10:57:57;101475.50;;;16.48;63.86
59190;BME280;50749;51.636;4.948;2024-02-21T11:00:26;101474.69;;;16.47;63.57
59190;BME280;50749;51.636;4.948;2024-02-21T11:02:56;101471.13;;;16.47;63.42
59190;BME280;50749;51.636;4.948;2024-02-21T11:05:25;101465.59;;;16.47;63.57
59190;BME280;50749;51.636;4.948;2024-02-21T11:07:55;101452.97;;;16.46;63.75
59190;BME280;50749;51.636;4.948;2024-02-21T11:10:24;101447.44;;;16.46;63.81
59190;BME280;50749;51.636;4.948;2024-02-21T11:13:05;101454.88;;;16.45;63.80
59190;BME280;50749;51.636;4.948;2024-02-21T11:15:34;101449.38;;;16.45;63.68
59190;BME280;50749;51.636;4.948;2024-02-21T11:18:03;101456.06;;;16.44;63.41
59190;BME280;50749;51.636;4.948;2024-02-21T11:20:32;101452.47;;;16.44;63.42
59190;BME280;50749;51.636;4.948;2024-02-21T11:23:03;101447.78;;;16.44;62.57
59190;BME280;50749;51.636;4.948;2024-02-21T11:25:32;101434.78;;;16.45;62.84
59190;BME280;50749;51.636;4.948;2024-02-21T11:28:04;101423.72;;;16.45;63.18
59190;BME280;50749;51.636;4.948;2024-02-21T11:30:35;101416.59;;;16.44;63.18
59190;BME280;50749;51.636;4.948;2024-02-21T11:33:06;101381.53;;;16.44;63.40
59190;BME280;50749;51.636;4.948;2024-02-21T11:35:36;101374.06;;;16.45;63.38
59190;BME280;50749;51.636;4.948;2024-02-21T11:38:08;101357.84;;;16.43;63.27
59190;BME280;50749;51.636;4.948;2024-02-21T11:40:41;101351.19;;;16.44;63.21
59190;BME280;50749;51.636;4.948;2024-02-21T11:43:13;101346.00;;;16.43;63.16
59190;BME280;50749;51.636;4.948;2024-02-21T11:45:41;101331.03;;;16.44;63.59
59190;BME280;50749;51.636;4.948;2024-02-21T11:48:10;101333.78;;;16.44;63.44
59190;BME280;50749;51.636;4.948;2024-02-21T11:50:39;101323.59;;;16.44;63.27
59190;BME280;50749;51.636;4.948;2024-02-21T11:53:09;101320.50;;;16.46;63.21
59190;BME280;50749;51.636;4.948;2024-02-21T11:55:37;101320.00;;;16.44;63.54
59190;BME280;50749;51.636;4.948;2024-02-21T11:58:06;101309.44;;;16.46;63.18
59190;BME280;50749;51.636;4.948;2024-02-21T12:00:37;101292.06;;;16.45;63.21
59190;BME280;50749;51.636;4.948;2024-02-21T12:03:07;101301.19;;;16.46;63.25
59190;BME280;50749;51.636;4.948;2024-02-21T12:05:35;101290.47;;;16.44;63.48
59190;BME280;50749;51.636;4.948;2024-02-21T12:08:05;101293.56;;;16.43;63.07
59190;BME280;50749;51.636;4.948;2024-02-21T12:10:34;101284.13;;;16.44;62.96
59190;BME280;50749;51.636;4.948;2024-02-21T12:13:07;101275.84;;;16.44;63.12
59190;BME280;50749;51.636;4.948;2024-02-21T12:15:39;101274.25;;;16.43;63.58
59190;BME280;50749;51.636;4.948;2024-02-21T12:18:10;101264.81;;;16.44;63.38
59190;BME280;50749;51.636;4.948;2024-02-21T12:20:38;101251.00;;;16.44;63.46
59190;BME280;50749;51.636;4.948;2024-02-21T12:23:09;101255.72;;;16.43;63.51
59190;BME280;50749;51.636;4.948;2024-02-21T12:25:38;101252.63;;;16.45;63.27
59190;BME280;50749;51.636;4.948;2024-02-21T12:28:07;101238.84;;;16.45;63.35
59190;BME280;50749;51.636;4.948;2024-02-21T12:30:39;101217.91;;;16.44;63.41
59190;BME280;50749;51.636;4.948;2024-02-21T12:33:08;101194.22;;;16.43;63.53
59190;BME280;50749;51.636;4.948;2024-02-21T12:35:37;101181.22;;;16.43;63.43
59190;BME280;50749;51.636;4.948;2024-02-21T12:38:06;101161.91;;;16.43;63.37
59190;BME280;50749;51.636;4.948;2024-02-21T12:40:36;101169.38;;;16.43;63.60
59190;BME280;50749;51.636;4.948;2024-02-21T12:43:05;101166.63;;;16.43;63.37
59190;BME280;50749;51.636;4.948;2024-02-21T12:45:35;101153.63;;;16.43;63.54
59190;BME280;50749;51.636;4.948;2024-02-21T12:48:07;101155.59;;;16.43;63.53
59190;BME280;50749;51.636;4.948;2024-02-21T12:50:35;101159.94;;;16.44;63.13
59190;BME280;50749;51.636;4.948;2024-02-21T12:53:04;101164.66;;;16.43;63.28
59190;BME280;50749;51.636;4.948;2024-02-21T12:55:33;101164.66;;;16.43;63.31
59190;BME280;50749;51.636;4.948;2024-02-21T12:58:04;101168.56;;;16.42;63.39
59190;BME280;50749;51.636;4.948;2024-02-21T13:00:34;101150.06;;;16.43;63.57
59190;BME280;50749;51.636;4.948;2024-02-21T13:03:06;101147.66;;;16.41;63.22